Time;durP1;ratioP1;P1;durP2;ratioP2;P2;SDS_P1;SDS_P2;PMS_P1;PMS_P2;Temp;Humidity;BMP_temperature;BMP_pressure;BME280_temperature;BME280_humidity;BME280_pressure;Samples;Min_cycle;Max_cycle;Signal;HPM_P1;HPM_P2
2023/04/07 00:01:18;;;;;;;0.60;0.60;;;;;;;7.63;100.00;101502.81;10375890;28;20083;-76
2023/04/07 00:06:18;;;;;;;1.05;1.05;;;;;;;7.40;100.00;101514.16;10391477;28;20047;-76
2023/04/07 00:11:19;;;;;;;0.98;0.98;;;;;;;7.21;100.00;101520.63;10375913;28;20381;-77
2023/04/07 00:16:20;;;;;;;1.92;1.85;;;;;;;7.05;100.00;101508.91;10375805;28;20068;-76
2023/04/07 00:21:21;;;;;;;0.82;0.82;;;;;;;6.97;100.00;101502.47;10373930;28;20025;-77
2023/04/07 00:26:21;;;;;;;0.50;0.50;;;;;;;6.87;100.00;101503.59;10373841;28;20033;-76
2023/04/07 00:31:22;;;;;;;2.50;2.40;;;;;;;6.79;100.00;101504.38;10375032;28;20076;-77
2023/04/07 00:36:23;;;;;;;0.55;0.55;;;;;;;6.70;100.00;101519.66;10376183;28;20053;-76
2023/04/07 00:41:24;;;;;;;0.40;0.40;;;;;;;6.67;100.00;101521.81;10374496;28;20038;-76
2023/04/07 00:46:25;;;;;;;0.50;0.50;;;;;;;6.61;100.00;101523.28;10374938;28;20033;-77
2023/04/07 00:51:25;;;;;;;1.10;1.10;;;;;;;6.64;100.00;101525.66;10389950;28;20072;-77
2023/04/07 00:56:26;;;;;;;0.47;0.47;;;;;;;6.59;100.00;101525.25;10389275;28;20061;-77
2023/04/07 01:01:51;;;;;;;0.52;0.52;;;;;;;6.57;100.00;101519.19;10389597;28;20034;-76
2023/04/07 01:06:52;;;;;;;0.85;0.85;;;;;;;6.47;100.00;101527.34;10352167;28;20069;-77
2023/04/07 01:11:59;;;;;;;3.92;1.80;;;;;;;6.47;100.00;101532.72;10372265;28;20129;-77
2023/04/07 01:17:00;;;;;;;0.50;0.50;;;;;;;6.56;100.00;101530.97;10389800;28;20061;-82
2023/04/07 01:22:00;;;;;;;0.77;0.77;;;;;;;6.62;100.00;101533.03;10373600;28;20065;-81
2023/04/07 01:27:16;;;;;;;2.88;2.65;;;;;;;6.73;100.00;101524.72;10374895;28;20531;-81
2023/04/07 01:32:17;;;;;;;0.43;0.43;;;;;;;6.75;100.00;101524.53;10394876;28;20030;-82
2023/04/07 01:37:17;;;;;;;0.68;0.68;;;;;;;6.72;100.00;101531.09;10373205;28;20050;-81
2023/04/07 01:42:18;;;;;;;0.50;0.50;;;;;;;6.69;100.00;101536.78;10389676;28;20041;-82
2023/04/07 01:47:18;;;;;;;0.40;0.40;;;;;;;6.80;100.00;101540.25;10373086;28;20042;-82
2023/04/07 01:52:19;;;;;;;0.50;0.50;;;;;;;6.89;100.00;101533.88;10389492;28;20445;-82
2023/04/07 01:57:19;;;;;;;0.50;0.50;;;;;;;6.90;100.00;101530.22;10375331;28;20049;-82
2023/04/07 02:02:20;;;;;;;0.40;0.40;;;;;;;6.88;100.00;101534.91;10373055;28;20482;-81
2023/04/07 02:07:41;;;;;;;3.65;3.33;;;;;;;6.89;100.00;101537.44;10373182;28;20084;-82
2023/04/07 02:12:42;;;;;;;0.60;0.60;;;;;;;6.87;100.00;101531.38;10398073;28;20077;-83
2023/04/07 02:17:46;;;;;;;0.60;0.60;;;;;;;6.79;100.00;101533.16;10388172;28;20041;-81
2023/04/07 02:22:46;;;;;;;0.47;0.47;;;;;;;6.69;100.00;101531.38;10380869;28;20030;-81
2023/04/07 02:27:47;;;;;;;0.75;0.75;;;;;;;6.67;100.00;101538.78;10379983;28;20041;-81
2023/04/07 02:32:47;;;;;;;0.50;0.50;;;;;;;6.80;100.00;101533.00;10381098;28;20030;-82
2023/04/07 02:37:47;;;;;;;0.45;0.45;;;;;;;7.06;100.00;101533.00;10379806;28;20429;-82
2023/04/07 02:42:48;;;;;;;3.30;2.67;;;;;;;7.23;100.00;101537.47;10379210;28;20401;-82
2023/04/07 02:47:48;;;;;;;0.98;0.98;;;;;;;7.41;100.00;101539.25;10397023;28;20101;-81
2023/04/07 02:52:49;;;;;;;0.47;0.47;;;;;;;7.48;100.00;101524.13;10379434;28;20089;-81
2023/04/07 02:57:49;;;;;;;0.38;0.38;;;;;;;7.56;100.00;101531.38;10380310;28;20533;-82
2023/04/07 03:02:50;;;;;;;0.40;0.40;;;;;;;7.65;100.00;101525.03;10385971;28;20100;-80
2023/04/07 03:07:50;;;;;;;0.40;0.40;;;;;;;7.70;100.00;101530.78;10378969;28;20069;-80
2023/04/07 03:12:50;;;;;;;0.50;0.50;;;;;;;7.76;100.00;101540.06;10378466;28;20104;-80
2023/04/07 03:17:51;;;;;;;0.47;0.47;;;;;;;7.80;100.00;101544.13;10380305;28;20112;-81
2023/04/07 03:22:51;;;;;;;0.40;0.40;;;;;;;7.82;100.00;101542.13;10379568;28;20034;-79
2023/04/07 03:27:52;;;;;;;0.40;0.40;;;;;;;7.86;100.00;101547.00;10377510;28;20482;-80
2023/04/07 03:32:52;;;;;;;0.40;0.40;;;;;;;7.91;100.00;101543.81;10377564;28;20041;-79
2023/04/07 03:37:52;;;;;;;0.50;0.50;;;;;;;7.92;100.00;101548.22;10378411;28;20054;-79
2023/04/07 03:42:53;;;;;;;0.43;0.43;;;;;;;7.93;100.00;101548.03;10378563;28;20092;-80
2023/04/07 03:47:53;;;;;;;1.10;1.10;;;;;;;7.88;100.00;101550.41;10377087;28;20482;-79
2023/04/07 03:52:54;;;;;;;0.40;0.40;;;;;;;7.91;100.00;101554.59;10377365;28;20038;-78
2023/04/07 03:57:54;;;;;;;0.47;0.47;;;;;;;7.91;100.00;101557.28;10376318;28;20038;-79
2023/04/07 04:02:55;;;;;;;0.50;0.50;;;;;;;7.87;100.00;101559.47;10376293;28;20057;-79
2023/04/07 04:07:55;;;;;;;1.58;1.58;;;;;;;7.87;100.00;101567.56;10376207;28;20065;-78
2023/04/07 04:12:59;;;;;;;0.52;0.52;;;;;;;7.86;100.00;101565.03;10377297;28;20092;-79
2023/04/07 04:18:00;;;;;;;1.20;1.20;;;;;;;7.85;100.00;101571.47;10374545;28;20470;-79
2023/04/07 04:23:00;;;;;;;0.40;0.40;;;;;;;7.84;100.00;101572.44;10374671;28;20038;-79
2023/04/07 04:28:01;;;;;;;8.48;3.28;;;;;;;7.83;100.00;101573.47;10378656;28;20108;-77
2023/04/07 04:33:02;;;;;;;6.43;3.25;;;;;;;7.84;100.00;101573.28;10377241;28;20026;-79
2023/04/07 04:38:02;;;;;;;7.28;3.15;;;;;;;7.84;100.00;101588.63;10356721;28;20061;-78
2023/04/07 04:43:05;;;;;;;10.23;2.83;;;;;;;7.85;100.00;101591.16;10374861;28;20034;-77
2023/04/07 04:48:06;;;;;;;14.82;3.45;;;;;;;7.83;100.00;101587.78;10373214;28;20390;-79
2023/04/07 04:53:06;;;;;;;9.13;3.55;;;;;;;7.84;100.00;101596.72;10374086;28;20041;-78
2023/04/07 04:58:07;;;;;;;4.65;3.08;;;;;;;7.85;100.00;101598.41;10374150;28;20033;-77
2023/04/07 05:03:07;;;;;;;3.75;3.15;;;;;;;7.86;100.00;101606.34;10372736;28;20034;-77
2023/04/07 05:08:09;;;;;;;5.82;3.42;;;;;;;7.86;100.00;101602.78;10372867;28;20061;-75
2023/04/07 05:13:10;;;;;;;6.05;2.35;;;;;;;7.88;100.00;101595.38;10389127;28;20081;-77
2023/04/07 05:18:10;;;;;;;12.95;3.05;;;;;;;7.88;100.00;101595.38;10388995;28;20030;-78
2023/04/07 05:23:11;;;;;;;6.03;3.08;;;;;;;7.88;100.00;101595.38;10373183;28;20125;-76
2023/04/07 05:28:11;;;;;;;3.88;3.00;;;;;;;7.88;100.00;101598.94;10373617;28;20045;-77
2023/04/07 05:33:12;;;;;;;6.18;2.05;;;;;;;7.92;100.00;101611.06;10373573;28;20056;-77
2023/04/07 05:38:13;;;;;;;8.27;3.38;;;;;;;7.94;100.00;101605.50;10375392;28;20054;-77
2023/04/07 05:43:13;;;;;;;12.75;4.15;;;;;;;7.98;100.00;101614.97;10376160;28;20026;-77
2023/04/07 05:48:13;;;;;;;9.57;2.47;;;;;;;8.05;100.00;101615.19;10383320;28;20092;-75
2023/04/07 05:53:14;;;;;;;12.00;3.45;;;;;;;8.15;100.00;101623.97;10381323;28;20072;-77
2023/04/07 05:58:15;;;;;;;5.18;2.63;;;;;;;8.19;100.00;101624.47;10382172;28;20038;-76
2023/04/07 06:03:15;;;;;;;2.05;1.88;;;;;;;8.20;100.00;101631.56;10380213;28;20113;-77
2023/04/07 06:08:16;;;;;;;7.43;3.53;;;;;;;8.16;100.00;101629.19;10395501;28;20153;-76
2023/04/07 06:13:16;;;;;;;10.98;2.67;;;;;;;8.23;100.00;101636.63;10380706;28;20091;-75
2023/04/07 06:18:17;;;;;;;15.30;3.55;;;;;;;8.31;100.00;101647.47;10378757;28;20501;-75
2023/04/07 06:23:17;;;;;;;17.13;3.83;;;;;;;8.35;100.00;101652.34;10380387;28;20085;-75
2023/04/07 06:28:18;;;;;;;12.15;3.47;;;;;;;8.40;100.00;101645.66;10381000;28;20330;-75
2023/04/07 06:33:22;;;;;;;15.23;3.45;;;;;;;8.38;100.00;101651.22;10378626;28;20120;-74
2023/04/07 06:38:23;;;;;;;10.82;2.75;;;;;;;8.40;100.00;101654.59;10380471;28;20137;-76
2023/04/07 06:43:23;;;;;;;6.35;2.80;;;;;;;8.30;100.00;101661.97;10379338;28;20120;-75
2023/04/07 06:48:25;;;;;;;11.65;2.53;;;;;;;8.18;100.00;101663.28;10378253;28;20410;-76
2023/04/07 06:53:25;;;;;;;9.52;3.00;;;;;;;8.20;100.00;101674.72;10379272;28;20041;-76
2023/04/07 06:58:25;;;;;;;5.25;3.28;;;;;;;8.24;100.00;101685.03;10376190;28;20038;-75
2023/04/07 07:03:26;;;;;;;7.90;2.58;;;;;;;8.23;100.00;101683.38;10394201;28;20041;-77
2023/04/07 07:08:27;;;;;;;9.00;3.17;;;;;;;8.21;100.00;101689.94;10380977;28;20065;-77
2023/04/07 07:13:27;;;;;;;9.57;3.25;;;;;;;8.27;100.00;101686.59;10383188;28;20040;-76
2023/04/07 07:18:28;;;;;;;10.25;2.90;;;;;;;8.30;100.00;101688.94;10395553;28;20113;-74
2023/04/07 07:23:28;;;;;;;6.38;2.45;;;;;;;8.31;100.00;101693.34;10378277;28;20065;-75
2023/04/07 07:28:28;;;;;;;5.10;2.97;;;;;;;8.37;100.00;101700.78;10377108;28;20038;-72
2023/04/07 07:33:29;;;;;;;14.15;3.15;;;;;;;8.43;100.00;101710.94;10375641;28;20029;-74
2023/04/07 07:38:29;;;;;;;8.70;3.38;;;;;;;8.48;100.00;101719.38;10375134;28;20100;-75
2023/04/07 07:43:30;;;;;;;13.85;3.72;;;;;;;8.51;100.00;101719.06;10391631;28;20060;-73
2023/04/07 07:48:30;;;;;;;11.38;2.80;;;;;;;8.57;100.00;101723.81;10392047;28;20106;-75
2023/04/07 07:53:31;;;;;;;12.07;3.78;;;;;;;8.64;100.00;101733.94;10376341;28;20030;-74
2023/04/07 07:58:31;;;;;;;9.95;2.47;;;;;;;8.81;100.00;101735.69;10374760;28;20042;-73
2023/04/07 08:03:32;;;;;;;7.13;3.13;;;;;;;8.91;100.00;101741.78;10376376;28;20417;-74
2023/04/07 08:08:32;;;;;;;6.03;3.08;;;;;;;8.99;100.00;101743.66;10375375;28;20042;-74
2023/04/07 08:13:32;;;;;;;10.82;2.70;;;;;;;9.06;100.00;101745.53;10390403;28;20100;-75
2023/04/07 08:18:33;;;;;;;10.52;3.63;;;;;;;9.11;100.00;101750.44;10375690;28;20038;-71
2023/04/07 08:23:33;;;;;;;9.38;3.35;;;;;;;9.16;100.00;101755.34;10373023;28;20033;-74
2023/04/07 08:28:34;;;;;;;11.95;2.83;;;;;;;9.12;100.00;101759.38;10373614;28;20363;-73
2023/04/07 08:33:34;;;;;;;7.60;3.00;;;;;;;9.22;100.00;101762.75;10374839;28;20057;-74
2023/04/07 08:38:34;;;;;;;23.35;3.60;;;;;;;9.29;100.00;101772.75;10376475;28;20053;-74
2023/04/07 08:43:38;;;;;;;20.95;3.13;;;;;;;9.27;100.00;101776.63;10356275;28;20073;-74
2023/04/07 08:48:38;;;;;;;8.90;2.53;;;;;;;9.34;100.00;101774.09;10390495;28;20497;-73
2023/04/07 08:53:49;;;;;;;10.68;2.83;;;;;;;9.46;100.00;101770.88;10375171;28;20040;-73
2023/04/07 08:58:49;;;;;;;9.75;3.28;;;;;;;9.62;100.00;101780.84;10388626;28;20026;-75
2023/04/07 09:03:50;;;;;;;6.68;2.25;;;;;;;9.83;100.00;101774.94;10372424;28;20061;-75
2023/04/07 09:08:50;;;;;;;6.72;3.35;;;;;;;9.88;100.00;101786.06;10390487;28;20049;-75
2023/04/07 09:13:50;;;;;;;5.68;3.08;;;;;;;9.73;100.00;101791.34;10374157;28;20034;-74
2023/04/07 09:18:51;;;;;;;7.45;2.45;;;;;;;9.72;100.00;101791.50;10388967;28;20037;-75
2023/04/07 09:23:52;;;;;;;4.68;2.70;;;;;;;10.20;100.00;101792.44;10373001;28;20044;-73
2023/04/07 09:29:00;;;;;;;10.88;2.80;;;;;;;10.62;100.00;101786.72;10388887;28;20509;-73
2023/04/07 09:34:00;;;;;;;2.38;2.17;;;;;;;10.66;100.00;101789.97;10371577;28;20104;-74
2023/04/07 09:39:06;;;;;;;13.52;2.45;;;;;;;10.72;100.00;101794.66;10389787;28;20433;-74
2023/04/07 09:44:07;;;;;;;8.63;2.05;;;;;;;10.73;100.00;101798.22;10371861;28;20084;-75
2023/04/07 09:49:07;;;;;;;10.52;2.58;;;;;;;10.65;100.00;101801.78;10371854;28;20070;-73
2023/04/07 09:54:08;;;;;;;3.67;1.77;;;;;;;11.04;100.00;101801.78;10388538;28;20041;-75
2023/04/07 09:59:09;;;;;;;2.67;1.48;;;;;;;11.11;100.00;101805.44;10388043;28;20050;-74
2023/04/07 10:04:10;;;;;;;9.20;1.92;;;;;;;10.94;100.00;101807.44;10372715;28;20389;-75
2023/04/07 10:09:10;;;;;;;1.75;1.48;;;;;;;10.88;100.00;101815.38;10371149;28;20045;-77
2023/04/07 10:14:10;;;;;;;14.38;3.05;;;;;;;10.76;100.00;101824.97;10370783;28;20036;-76
2023/04/07 10:19:11;;;;;;;8.45;3.33;;;;;;;10.43;100.00;101814.22;10387222;28;20053;-73
2023/04/07 10:24:43;;;;;;;9.00;3.47;;;;;;;10.15;100.00;101821.91;10372817;28;20037;-75
2023/04/07 10:29:45;;;;;;;3.20;2.38;;;;;;;9.83;100.00;101826.34;10371293;28;20030;-76
2023/04/07 10:34:49;;;;;;;23.15;3.35;;;;;;;9.95;100.00;101826.81;10378269;28;20054;-76
2023/04/07 10:40:26;;;;;;;10.65;2.92;;;;;;;10.10;100.00;101827.81;10379481;28;20029;-75
2023/04/07 10:45:46;;;;;;;;;;;;;;;10.31;100.00;101832.72;10396299;28;20030;-75
2023/04/07 10:51:07;;;;;;;8.57;3.00;;;;;;;10.55;100.00;101828.25;10379981;28;19909;-75
2023/04/07 10:56:07;;;;;;;5.05;2.90;;;;;;;10.76;100.00;101833.91;10379979;28;20105;-75
2023/04/07 11:01:13;;;;;;;10.68;2.30;;;;;;;10.82;100.00;101830.50;10378740;28;20148;-75
2023/04/07 11:06:14;;;;;;;8.80;3.33;;;;;;;10.79;100.00;101840.88;10379623;28;20097;-73
2023/04/07 11:11:20;;;;;;;6.68;3.05;;;;;;;10.91;100.00;101842.13;10377943;28;20448;-74
2023/04/07 11:16:34;;;;;;;9.43;3.83;;;;;;;10.93;100.00;101840.09;10392711;28;20034;-75
2023/04/07 11:21:35;;;;;;;4.45;1.77;;;;;;;10.95;100.00;101848.91;10391304;28;20029;-77
2023/04/07 11:26:37;;;;;;;4.50;3.05;;;;;;;10.86;100.00;101852.69;10377511;28;20389;-72
2023/04/07 11:31:38;;;;;;;13.45;3.03;;;;;;;10.84;100.00;101852.84;10376041;28;20446;-76
2023/04/07 11:36:39;;;;;;;17.52;3.58;;;;;;;10.97;100.00;101862.28;10392061;28;20041;-75
2023/04/07 11:41:45;;;;;;;15.43;2.60;;;;;;;11.10;100.00;101866.13;10392034;28;20030;-75
2023/04/07 11:46:56;;;;;;;4.45;2.40;;;;;;;11.02;100.00;101873.44;10376811;28;20378;-72
2023/04/07 11:52:05;;;;;;;9.48;2.45;;;;;;;11.00;100.00;101880.91;10392386;28;20032;-73
2023/04/07 11:57:05;;;;;;;3.75;2.72;;;;;;;11.03;100.00;101877.84;10375796;28;20113;-75
2023/04/07 12:02:06;;;;;;;9.93;2.97;;;;;;;11.19;100.00;101880.44;10376621;28;20104;-73
2023/04/07 12:07:08;;;;;;;16.20;2.78;;;;;;;11.36;100.00;101883.94;10376288;28;20029;-76
2023/04/07 12:12:09;;;;;;;6.35;2.30;;;;;;;11.59;100.00;101884.81;10391767;28;20038;-75
2023/04/07 12:17:22;;;;;;;4.88;1.92;;;;;;;11.68;100.00;101901.88;10376255;28;20029;-73
2023/04/07 12:22:22;;;;;;;9.07;2.53;;;;;;;11.60;100.00;101897.34;10374551;28;20037;-74
2023/04/07 12:27:23;;;;;;;10.02;2.88;;;;;;;11.64;100.00;101900.53;10389900;28;20038;-73
2023/04/07 12:32:24;;;;;;;3.22;1.77;;;;;;;11.81;100.00;101906.69;10390056;28;20068;-72
2023/04/07 12:37:25;;;;;;;7.88;2.03;;;;;;;11.72;100.00;101911.34;10375686;28;20054;-72
2023/04/07 12:42:26;;;;;;;4.40;1.83;;;;;;;11.76;100.00;101911.81;10375331;28;20088;-73
2023/04/07 12:47:26;;;;;;;6.40;2.35;;;;;;;11.68;100.00;101912.72;10389887;28;20037;-77
2023/04/07 12:52:26;;;;;;;6.55;2.22;;;;;;;11.61;100.00;101911.72;10374136;28;20450;-74
2023/04/07 12:57:27;;;;;;;4.95;2.08;;;;;;;11.64;100.00;101909.50;10373629;28;20042;-75
2023/04/07 13:02:27;;;;;;;7.40;2.53;;;;;;;11.72;100.00;101918.63;10374256;28;20128;-73
2023/04/07 13:07:28;;;;;;;2.80;1.83;;;;;;;11.57;100.00;101922.09;10373558;28;20470;-76
2023/04/07 13:12:28;;;;;;;6.80;1.73;;;;;;;11.43;100.00;101919.34;10374590;28;20072;-74
2023/04/07 13:17:29;;;;;;;8.02;2.38;;;;;;;11.41;100.00;101917.63;10395332;28;20053;-76
2023/04/07 13:22:29;;;;;;;15.20;2.50;;;;;;;11.47;100.00;101921.50;10375568;28;20374;-74
2023/04/07 13:27:30;;;;;;;9.57;3.50;;;;;;;11.29;100.00;101935.31;10389362;28;20084;-77
2023/04/07 13:32:30;;;;;;;10.02;3.95;;;;;;;11.28;100.00;101930.06;10394788;28;20061;-76
2023/04/07 13:37:31;;;;;;;4.53;2.10;;;;;;;11.36;100.00;101928.19;10390487;28;20413;-74
2023/04/07 13:42:31;;;;;;;7.80;3.17;;;;;;;11.21;100.00;101932.66;10380584;28;20041;-76
2023/04/07 13:47:33;;;;;;;12.63;2.33;;;;;;;10.90;100.00;101933.44;10374749;28;20042;-76
2023/04/07 13:52:34;;;;;;;9.07;2.55;;;;;;;10.60;100.00;101937.75;10380049;28;20165;-78
2023/04/07 13:57:34;;;;;;;6.35;2.88;;;;;;;10.47;100.00;101941.00;10395028;28;20173;-78
2023/04/07 14:02:35;;;;;;;5.60;2.47;;;;;;;10.41;100.00;101951.66;10375902;28;20488;-77
2023/04/07 14:07:35;;;;;;;12.43;2.92;;;;;;;10.18;100.00;101946.06;10383223;28;20046;-77
2023/04/07 14:12:35;;;;;;;10.48;3.35;;;;;;;10.12;100.00;101953.00;10401412;28;20048;-77
2023/04/07 14:17:36;;;;;;;4.85;2.67;;;;;;;10.23;100.00;101946.38;10399262;28;20065;-76
2023/04/07 14:22:36;;;;;;;8.48;3.28;;;;;;;10.37;100.00;101951.16;10388702;28;20030;-76
2023/04/07 14:27:37;;;;;;;11.68;3.22;;;;;;;10.53;100.00;101946.72;10389215;28;20038;-75
2023/04/07 14:32:37;;;;;;;8.02;3.03;;;;;;;10.78;100.00;101950.22;10401249;28;20038;-76
2023/04/07 14:37:38;;;;;;;18.52;3.70;;;;;;;11.00;100.00;101952.19;10400544;28;20077;-77
2023/04/07 14:42:38;;;;;;;19.80;4.40;;;;;;;11.02;100.00;101943.91;10400213;28;20041;-77
2023/04/07 14:47:39;;;;;;;6.97;3.03;;;;;;;11.01;100.00;101943.06;10397287;28;20041;-76
2023/04/07 14:52:39;;;;;;;5.78;2.88;;;;;;;10.93;100.00;101952.06;10412655;28;20045;-76
2023/04/07 14:57:40;;;;;;;8.65;3.38;;;;;;;10.78;100.00;101955.66;10404686;28;20117;-76
2023/04/07 15:02:40;;;;;;;7.13;3.22;;;;;;;10.63;100.00;101953.66;10430516;28;20354;-76
2023/04/07 15:07:40;;;;;;;10.02;4.38;;;;;;;10.68;100.00;101972.09;10403560;28;20037;-76
2023/04/07 15:12:41;;;;;;;12.23;3.35;;;;;;;10.59;100.00;101965.00;10419989;28;20029;-76
2023/04/07 15:17:41;;;;;;;31.67;4.05;;;;;;;10.41;100.00;101968.75;10400287;28;20038;-76
2023/04/07 15:22:42;;;;;;;6.45;3.35;;;;;;;10.51;100.00;101973.16;10421226;28;20044;-76
2023/04/07 15:27:42;;;;;;;7.47;3.55;;;;;;;10.36;100.00;101960.28;10402460;28;20048;-77
2023/04/07 15:32:56;;;;;;;12.57;4.03;;;;;;;10.42;100.00;101975.00;10401004;28;20034;-80
2023/04/07 15:37:56;;;;;;;12.15;4.10;;;;;;;10.41;100.00;101962.50;10395793;28;20085;-76
2023/04/07 15:42:57;;;;;;;10.07;3.88;;;;;;;10.52;100.00;101972.13;10404283;28;20065;-77
2023/04/07 15:47:57;;;;;;;16.25;4.38;;;;;;;10.65;100.00;101970.56;10403515;28;20033;-77
2023/04/07 15:52:58;;;;;;;8.15;3.85;;;;;;;10.60;100.00;101974.84;10404996;28;20045;-74
2023/04/07 15:57:59;;;;;;;11.18;4.13;;;;;;;10.52;100.00;101982.97;10401670;28;20042;-76
2023/04/07 16:03:02;;;;;;;12.60;3.67;;;;;;;10.45;100.00;101978.22;10406981;28;20038;-77
2023/04/07 16:08:03;;;;;;;13.48;3.80;;;;;;;10.40;100.00;101993.28;10405953;28;20053;-76
2023/04/07 16:13:03;;;;;;;5.72;3.55;;;;;;;10.33;100.00;101998.53;10409382;28;20034;-76
2023/04/07 16:18:05;;;;;;;9.02;4.22;;;;;;;10.26;100.00;102000.22;10405075;28;20042;-76
2023/04/07 16:23:05;;;;;;;13.32;3.90;;;;;;;10.14;100.00;101998.81;10403744;28;20030;-77
2023/04/07 16:28:05;;;;;;;20.02;4.47;;;;;;;9.98;100.00;102002.34;10420497;28;20037;-77
2023/04/07 16:33:06;;;;;;;10.55;5.38;;;;;;;9.94;100.00;101998.31;10402248;28;20030;-75
2023/04/07 16:38:06;;;;;;;6.57;3.45;;;;;;;9.90;100.00;102011.31;10406918;28;20405;-77
2023/04/07 16:43:07;;;;;;;9.98;3.42;;;;;;;9.87;100.00;102021.63;10419570;28;20045;-76
2023/04/07 16:48:08;;;;;;;8.82;3.80;;;;;;;9.82;100.00;102016.69;10400742;28;20044;-76
2023/04/07 16:53:08;;;;;;;9.82;4.10;;;;;;;9.82;100.00;102015.84;10401388;28;20038;-76
2023/04/07 16:58:09;;;;;;;9.93;4.55;;;;;;;9.92;100.00;102022.84;10415174;28;20064;-77
2023/04/07 17:03:12;;;;;;;10.75;3.85;;;;;;;9.98;100.00;102029.41;10420469;28;20041;-77
2023/04/07 17:08:12;;;;;;;9.07;3.47;;;;;;;10.01;100.00;102032.63;10408584;28;20037;-76
2023/04/07 17:13:13;;;;;;;10.52;5.25;;;;;;;10.01;100.00;102035.34;10405210;28;20048;-76
2023/04/07 17:18:13;;;;;;;17.25;4.55;;;;;;;9.97;100.00;102047.50;10404598;28;20046;-75
2023/04/07 17:23:14;;;;;;;6.70;3.72;;;;;;;9.83;100.00;102044.59;10393417;28;20082;-77
2023/04/07 17:28:14;;;;;;;9.27;4.88;;;;;;;9.73;100.00;102050.13;10402608;28;20030;-76
2023/04/07 17:33:14;;;;;;;13.98;4.47;;;;;;;9.59;100.00;102053.47;10395055;28;20034;-76
2023/04/07 17:38:15;;;;;;;8.18;4.55;;;;;;;9.49;100.00;102053.59;10402539;28;20069;-77
2023/04/07 17:43:15;;;;;;;7.25;4.95;;;;;;;9.48;100.00;102069.00;10392773;28;20029;-76
2023/04/07 17:48:16;;;;;;;16.83;5.75;;;;;;;9.45;100.00;102079.28;10420314;28;20034;-78
2023/04/07 17:53:16;;;;;;;15.88;5.93;;;;;;;9.43;100.00;102082.13;10410045;28;20030;-77
2023/04/07 17:58:19;;;;;;;11.60;4.40;;;;;;;9.40;100.00;102092.44;10409802;28;20041;-76
2023/04/07 18:03:20;;;;;;;12.60;5.22;;;;;;;9.32;100.00;102094.09;10422231;28;20069;-76
2023/04/07 18:08:20;;;;;;;10.15;4.90;;;;;;;9.29;100.00;102101.66;10409624;28;20093;-76
2023/04/07 18:13:21;;;;;;;7.78;5.25;;;;;;;9.23;100.00;102105.84;10410087;28;20030;-77
2023/04/07 18:18:21;;;;;;;11.05;4.80;;;;;;;9.21;100.00;102102.44;10405087;28;20446;-76
2023/04/07 18:23:21;;;;;;;14.10;6.38;;;;;;;9.27;100.00;102118.03;10407429;28;20033;-76
2023/04/07 18:28:22;;;;;;;12.95;5.97;;;;;;;9.25;100.00;102111.06;10407123;28;20042;-76
2023/04/07 18:33:22;;;;;;;9.55;5.20;;;;;;;9.21;100.00;102118.66;10413796;28;20082;-77
2023/04/07 18:38:23;;;;;;;16.10;6.90;;;;;;;9.20;100.00;102127.78;10408053;28;20067;-75
2023/04/07 18:43:23;;;;;;;13.52;5.72;;;;;;;9.20;100.00;102137.75;10397353;28;20029;-77
2023/04/07 18:48:25;;;;;;;10.93;7.20;;;;;;;9.23;100.00;102145.53;10391850;28;20022;-77
2023/04/07 18:53:25;;;;;;;14.63;6.72;;;;;;;9.15;100.00;102149.03;10398097;28;20033;-75
2023/04/07 18:58:25;;;;;;;11.63;6.70;;;;;;;9.12;100.00;102154.75;10396867;28;20038;-76
2023/04/07 19:03:26;;;;;;;20.35;7.28;;;;;;;9.10;100.00;102164.88;10379594;28;20038;-75
2023/04/07 19:08:26;;;;;;;14.80;6.35;;;;;;;9.07;100.00;102171.44;10377750;28;20036;-74
2023/04/07 19:13:27;;;;;;;12.60;5.55;;;;;;;9.08;100.00;102172.28;10378710;28;20022;-76
2023/04/07 19:18:28;;;;;;;20.10;6.07;;;;;;;9.13;100.00;102185.34;10387526;28;20030;-76
2023/04/07 19:23:29;;;;;;;18.92;7.15;;;;;;;9.12;100.00;102178.22;10392187;28;20052;-75
2023/04/07 19:28:30;;;;;;;11.93;6.13;;;;;;;9.07;100.00;102181.41;10380345;28;20434;-76
2023/04/07 19:33:30;;;;;;;13.30;6.35;;;;;;;9.04;100.00;102182.56;10395181;28;20061;-76
2023/04/07 19:38:31;;;;;;;13.15;5.93;;;;;;;9.05;100.00;102186.94;10377862;28;20061;-77
2023/04/07 19:43:31;;;;;;;27.52;8.75;;;;;;;9.04;100.00;102185.25;10381149;28;20104;-77
2023/04/07 19:48:32;;;;;;;16.27;7.53;;;;;;;9.03;100.00;102199.78;10384697;28;20045;-76
2023/04/07 19:53:33;;;;;;;17.83;6.45;;;;;;;9.03;100.00;102194.38;10385683;28;20393;-76
2023/04/07 19:58:34;;;;;;;20.88;8.52;;;;;;;9.05;100.00;102194.22;10371254;28;20030;-76
2023/04/07 20:03:35;;;;;;;9.82;6.03;;;;;;;9.03;100.00;102204.31;10382878;28;20405;-76
2023/04/07 20:08:35;;;;;;;16.73;6.70;;;;;;;9.02;100.00;102206.16;10386736;28;20034;-76
2023/04/07 20:13:39;;;;;;;15.18;6.97;;;;;;;9.00;100.00;102194.69;10388585;28;20052;-76
2023/04/07 20:18:39;;;;;;;22.67;7.05;;;;;;;8.96;100.00;102201.38;10373273;28;20076;-76
2023/04/07 20:23:40;;;;;;;15.93;7.45;;;;;;;9.01;100.00;102200.94;10416191;28;20412;-76
2023/04/07 20:28:40;;;;;;;16.45;8.13;;;;;;;8.99;100.00;102209.19;10393901;28;20359;-77
2023/04/07 20:33:41;;;;;;;21.25;8.27;;;;;;;9.00;100.00;102213.59;10412457;28;20041;-75
2023/04/07 20:38:42;;;;;;;16.27;8.88;;;;;;;8.96;100.00;102211.34;10397850;28;20058;-77
2023/04/07 20:43:43;;;;;;;17.98;7.95;;;;;;;8.97;100.00;102211.22;10401787;28;20102;-77
2023/04/07 20:48:43;;;;;;;20.58;8.48;;;;;;;8.98;100.00;102217.47;10402680;28;20037;-77
2023/04/07 20:53:43;;;;;;;13.65;7.95;;;;;;;8.98;100.00;102209.34;10397734;28;20042;-77
2023/04/07 20:58:44;;;;;;;17.42;8.13;;;;;;;8.98;100.00;102218.28;10399937;28;20124;-76
2023/04/07 21:03:45;;;;;;;18.40;10.13;;;;;;;8.99;100.00;102225.38;10412202;28;20057;-76
2023/04/07 21:08:45;;;;;;;19.50;8.75;;;;;;;9.00;100.00;102223.56;10385793;28;20113;-75
2023/04/07 21:13:45;;;;;;;17.50;8.23;;;;;;;9.01;100.00;102230.66;10382162;28;20060;-76
2023/04/07 21:18:46;;;;;;;15.98;8.18;;;;;;;9.01;100.00;102234.19;10395961;28;20046;-76
2023/04/07 21:23:46;;;;;;;22.17;9.60;;;;;;;9.03;100.00;102236.72;10372964;28;20038;-77
2023/04/07 21:28:47;;;;;;;19.77;9.60;;;;;;;9.04;100.00;102246.56;10390561;28;20042;-76
2023/04/07 21:33:47;;;;;;;10.50;9.23;;;;;;;9.00;100.00;102237.91;10397684;28;20129;-77
2023/04/07 21:38:49;;;;;;;27.15;10.60;;;;;;;8.99;100.00;102240.75;10400779;28;20107;-77
2023/04/07 21:43:49;;;;;;;13.88;8.52;;;;;;;8.97;100.00;102234.69;10410877;28;20182;-76
2023/04/07 21:48:50;;;;;;;17.70;9.73;;;;;;;8.97;100.00;102232.81;10404527;28;20038;-77
2023/04/07 21:53:51;;;;;;;12.55;9.32;;;;;;;8.95;100.00;102237.53;10394756;28;20034;-76
2023/04/07 21:58:51;;;;;;;21.40;10.63;;;;;;;8.94;100.00;102229.59;10403365;28;20018;-77
2023/04/07 22:03:52;;;;;;;18.30;9.68;;;;;;;8.92;100.00;102245.09;10405949;28;20148;-78
2023/04/07 22:08:52;;;;;;;17.40;9.15;;;;;;;8.93;100.00;102242.22;10371089;28;20045;-76
2023/04/07 22:13:53;;;;;;;28.40;10.80;;;;;;;8.94;100.00;102243.94;10391363;28;20061;-76
2023/04/07 22:18:53;;;;;;;23.45;10.80;;;;;;;8.95;100.00;102250.19;10390616;28;20036;-76
2023/04/07 22:23:54;;;;;;;27.52;12.95;;;;;;;8.96;100.00;102252.72;10383816;28;20030;-76
2023/04/07 22:28:54;;;;;;;19.35;10.95;;;;;;;8.97;100.00;102249.03;10403811;28;20107;-76
2023/04/07 22:33:55;;;;;;;15.73;11.07;;;;;;;8.97;100.00;102253.59;10404340;28;20044;-77
2023/04/07 22:38:55;;;;;;;21.15;12.45;;;;;;;8.94;100.00;102260.16;10403069;28;20135;-76
2023/04/07 22:43:56;;;;;;;18.92;10.73;;;;;;;8.91;100.00;102263.16;10390511;28;20045;-76
2023/04/07 22:48:56;;;;;;;21.05;13.07;;;;;;;8.94;100.00;102264.69;10399883;28;20037;-76
2023/04/07 22:53:57;;;;;;;26.30;13.45;;;;;;;8.98;100.00;102268.78;10392487;28;20045;-77